createdAt,value
2022-08-23T00:01:27.924Z,94989.09
2022-08-23T00:04:01.634Z,94989.91
2022-08-23T00:06:28.833Z,94976.31
2022-08-23T00:08:56.058Z,94980.63
2022-08-23T00:11:39.756Z,94989.28
2022-08-23T00:14:11.338Z,94981.34
2022-08-23T00:16:38.975Z,94985.03
2022-08-23T00:19:07.275Z,94980.38
2022-08-23T00:21:35.455Z,94982.34
2022-08-23T00:24:03.947Z,94982.22
2022-08-23T00:27:03.840Z,94973.34
2022-08-23T00:29:57.491Z,94977.94
2022-08-23T00:32:29.804Z,94968.06
2022-08-23T00:34:57.631Z,94981.00
2022-08-23T00:37:24.653Z,94975.53
2022-08-23T00:39:51.453Z,94973.38
2022-08-23T00:42:53.350Z,94970.19
2022-08-23T00:45:27.626Z,94975.63
2022-08-23T00:47:54.729Z,94970.94
2022-08-23T00:50:47.707Z,94971.94
2022-08-23T00:53:27.976Z,94970.69
2022-08-23T00:56:00.293Z,94973.56
2022-08-23T00:58:28.407Z,94978.81
2022-08-23T01:00:58.594Z,94973.72
2022-08-23T01:03:29.018Z,94976.22
2022-08-23T01:06:22.744Z,94970.41
2022-08-23T01:09:00.130Z,94970.53
2022-08-23T01:11:34.874Z,94965.03
2022-08-23T01:14:15.469Z,94966.56
2022-08-23T01:16:53.702Z,94965.94
2022-08-23T01:19:47.297Z,94974.88
2022-08-23T01:22:42.168Z,94976.91
2022-08-23T01:25:13.805Z,94984.16
2022-08-23T01:27:41.936Z,94980.56
2022-08-23T01:30:12.097Z,94984.72
2022-08-23T01:32:46.222Z,94982.53
2022-08-23T01:35:14.447Z,94989.88
2022-08-23T01:37:41.171Z,94991.31
2022-08-23T01:40:08.557Z,94987.25
2022-08-23T01:42:35.266Z,94988.78
2022-08-23T01:45:02.138Z,94984.63
2022-08-23T01:47:28.856Z,94976.63
2022-08-23T01:49:56.605Z,94979.84
2022-08-23T01:52:23.277Z,94982.31
2022-08-23T01:54:50.096Z,94981.50
2022-08-23T01:57:18.392Z,94982.97
2022-08-23T01:59:45.342Z,94987.53
2022-08-23T02:02:12.161Z,94984.84
2022-08-23T02:04:39.214Z,94986.19
2022-08-23T02:07:06.069Z,94987.69
2022-08-23T02:09:32.888Z,94982.03
2022-08-23T02:11:59.794Z,94992.28
2022-08-23T02:14:26.806Z,94994.19
2022-08-23T02:17:02.884Z,94995.50
2022-08-23T02:19:33.413Z,94999.78
2022-08-23T02:22:00.434Z,95007.38
2022-08-23T02:24:27.405Z,95009.41
2022-08-23T02:26:58.101Z,95009.13
2022-08-23T02:29:26.827Z,95012.78
2022-08-23T02:31:54.063Z,95015.66
2022-08-23T02:34:22.520Z,95017.53
2022-08-23T02:36:51.478Z,95014.06
2022-08-23T02:39:18.885Z,95011.41
2022-08-23T02:41:45.587Z,95014.84
2022-08-23T02:44:13.066Z,95025.22
2022-08-23T02:46:42.234Z,95020.47
2022-08-23T02:49:09.439Z,95020.78
2022-08-23T02:51:36.138Z,95020.06
2022-08-23T02:54:03.664Z,95014.81
2022-08-23T02:56:30.425Z,95014.66
2022-08-23T02:58:57.085Z,95018.06
2022-08-23T03:01:27.760Z,95009.41
2022-08-23T03:03:55.398Z,95013.25
2022-08-23T03:06:24.321Z,95018.47
2022-08-23T03:08:53.971Z,95021.22
2022-08-23T03:11:22.734Z,95026.72
2022-08-23T03:13:50.990Z,95022.81
2022-08-23T03:16:18.494Z,95018.97
2022-08-23T03:18:46.633Z,95021.22
2022-08-23T03:21:14.392Z,95023.41
2022-08-23T03:23:42.140Z,95027.78
2022-08-23T03:26:11.728Z,95030.63
2022-08-23T03:28:41.235Z,95022.00
2022-08-23T03:31:09.773Z,95022.91
2022-08-23T03:33:37.236Z,95019.00
2022-08-23T03:36:07.144Z,95020.13
2022-08-23T03:38:34.427Z,95027.53
2022-08-23T03:41:02.110Z,95021.84
2022-08-23T03:43:30.508Z,95025.41
2022-08-23T03:45:57.403Z,95027.50
2022-08-23T03:48:24.949Z,95030.75
2022-08-23T03:50:54.836Z,95029.81
2022-08-23T03:53:22.932Z,95034.09
2022-08-23T03:55:52.979Z,95031.19
2022-08-23T03:58:19.787Z,95031.16
2022-08-23T04:00:46.414Z,95035.84
2022-08-23T04:03:13.048Z,95030.28
2022-08-23T04:05:39.730Z,95036.56
2022-08-23T04:08:08.892Z,95034.38
2022-08-23T04:10:35.557Z,95032.75
2022-08-23T04:13:02.241Z,95045.81
2022-08-23T04:15:29.182Z,95050.47
2022-08-23T04:17:55.825Z,95052.81
2022-08-23T04:20:22.419Z,95064.09
2022-08-23T04:22:53.711Z,95056.78
2022-08-23T04:25:33.512Z,95058.13
2022-08-23T04:28:00.989Z,95066.78
2022-08-23T04:30:28.010Z,95076.50
2022-08-23T04:32:55.411Z,95067.97
2022-08-23T04:35:22.580Z,95077.28
2022-08-23T04:37:49.487Z,95077.31
2022-08-23T04:40:16.208Z,95079.88
2022-08-23T04:42:42.878Z,95073.72
2022-08-23T04:45:09.533Z,95082.25
2022-08-23T04:47:36.190Z,95080.69
2022-08-23T04:50:03.987Z,95086.09
2022-08-23T04:52:30.597Z,95088.81
2022-08-23T04:54:57.211Z,95090.41
2022-08-23T04:57:23.852Z,95094.13
2022-08-23T04:59:50.473Z,95089.78
2022-08-23T05:02:17.128Z,95095.75
2022-08-23T05:04:43.757Z,95100.06
2022-08-23T05:07:10.449Z,95091.94
2022-08-23T05:09:37.193Z,95093.69
2022-08-23T05:12:04.846Z,95111.75
2022-08-23T05:14:32.458Z,95109.59
2022-08-23T05:16:59.071Z,95111.25
2022-08-23T05:19:25.670Z,95112.59
2022-08-23T05:21:56.763Z,95119.78
2022-08-23T05:24:23.888Z,95114.91
2022-08-23T05:26:50.538Z,95117.53
2022-08-23T05:29:17.138Z,95128.38
2022-08-23T05:31:43.805Z,95133.19
2022-08-23T05:34:13.043Z,95133.16
2022-08-23T05:36:48.891Z,95132.31
2022-08-23T05:39:25.748Z,95136.34
2022-08-23T05:42:04.183Z,95131.81
2022-08-23T05:44:36.151Z,95129.75
2022-08-23T05:47:10.362Z,95139.41
2022-08-23T05:49:38.437Z,95149.44
2022-08-23T05:52:07.328Z,95147.06
2022-08-23T05:54:34.634Z,95144.13
2022-08-23T05:57:01.277Z,95140.75
2022-08-23T05:59:28.167Z,95150.00
2022-08-23T06:01:54.841Z,95144.94
2022-08-23T06:04:21.533Z,95151.63
2022-08-23T06:06:48.195Z,95155.84
2022-08-23T06:09:17.566Z,95152.53
2022-08-23T06:11:46.464Z,95140.56
2022-08-23T06:14:14.127Z,95156.25
2022-08-23T06:16:43.828Z,95147.97
2022-08-23T06:19:11.228Z,95154.25
2022-08-23T06:21:38.420Z,95156.72
2022-08-23T06:24:06.074Z,95156.38
2022-08-23T06:26:36.956Z,95156.59
2022-08-23T06:29:08.439Z,95153.59
2022-08-23T06:31:35.097Z,95158.19
2022-08-23T06:34:01.776Z,95158.53
2022-08-23T06:36:28.459Z,95159.78
2022-08-23T06:38:55.276Z,95153.75
2022-08-23T06:41:21.928Z,95158.66
2022-08-23T06:43:48.810Z,95156.88
2022-08-23T06:46:19.872Z,95162.56
2022-08-23T06:48:51.358Z,95162.25
2022-08-23T06:51:26.732Z,95158.63
2022-08-23T06:53:54.085Z,95162.22
2022-08-23T06:56:22.714Z,95162.13
2022-08-23T06:58:50.034Z,95153.03
2022-08-23T07:01:47.849Z,95155.03
2022-08-23T07:04:20.640Z,95149.00
2022-08-23T07:06:47.346Z,95146.97
2022-08-23T07:09:16.349Z,95144.03
2022-08-23T07:11:43.040Z,95148.31
2022-08-23T07:14:13.393Z,95144.44
2022-08-23T07:16:46.833Z,95143.28
2022-08-23T07:19:14.928Z,95143.25
2022-08-23T07:21:44.887Z,95142.53
2022-08-23T07:24:17.141Z,95146.28
2022-08-23T07:26:45.932Z,95147.94
2022-08-23T07:29:13.888Z,95146.81
2022-08-23T07:31:47.811Z,95147.03
2022-08-23T07:34:15.491Z,95158.00
2022-08-23T07:36:44.494Z,95152.88
2022-08-23T07:39:12.850Z,95143.50
2022-08-23T07:41:40.085Z,95154.63
2022-08-23T07:44:09.183Z,95145.81
2022-08-23T07:46:37.996Z,95152.19
2022-08-23T07:49:04.782Z,95154.28
2022-08-23T07:51:34.287Z,95151.28
2022-08-23T07:54:06.429Z,95157.25
2022-08-23T07:56:35.522Z,95159.91
2022-08-23T07:59:03.366Z,95156.28
2022-08-23T08:01:30.640Z,95162.81
2022-08-23T08:04:01.290Z,95159.91
2022-08-23T08:06:27.855Z,95162.63
2022-08-23T08:08:55.220Z,95167.22
2022-08-23T08:11:24.958Z,95165.00
2022-08-23T08:13:52.143Z,95164.13
2022-08-23T08:16:26.521Z,95170.19
2022-08-23T08:18:59.720Z,95158.66
2022-08-23T08:21:28.235Z,95173.03
2022-08-23T08:23:57.565Z,95171.81
2022-08-23T08:26:26.015Z,95169.03
2022-08-23T08:28:53.846Z,95173.69
2022-08-23T08:31:20.525Z,95170.00
2022-08-23T08:33:47.212Z,95169.88
2022-08-23T08:36:35.702Z,95180.53
2022-08-23T08:39:06.781Z,95163.22
2022-08-23T08:41:45.895Z,95177.81
2022-08-23T08:44:32.884Z,95167.41
2022-08-23T08:46:59.652Z,95166.91
2022-08-23T08:49:51.600Z,95166.16
2022-08-23T08:52:23.303Z,95170.19
2022-08-23T08:55:11.079Z,95168.44
2022-08-23T08:57:46.011Z,95168.59
2022-08-23T09:00:23.919Z,95170.09
2022-08-23T09:02:52.022Z,95173.81
2022-08-23T09:05:32.485Z,95169.84
2022-08-23T09:08:11.043Z,95166.06
2022-08-23T09:10:52.683Z,95166.53
2022-08-23T09:13:31.320Z,95165.34
2022-08-23T09:16:09.796Z,95164.59
2022-08-23T09:18:37.456Z,95162.34
2022-08-23T09:21:07.899Z,95162.03
2022-08-23T09:23:42.831Z,95162.84
2022-08-23T09:26:23.715Z,95166.56
2022-08-23T09:29:11.953Z,95168.81
2022-08-23T09:31:43.098Z,95158.84
2022-08-23T09:34:18.551Z,95160.16
2022-08-23T09:36:46.550Z,95159.97
2022-08-23T09:39:33.472Z,95155.97
2022-08-23T09:42:01.241Z,95158.09
2022-08-23T09:44:42.012Z,95165.06
2022-08-23T09:47:17.113Z,95153.88
2022-08-23T09:49:48.514Z,95155.25
2022-08-23T09:52:29.168Z,95156.94
2022-08-23T09:55:03.589Z,95146.78
2022-08-23T09:57:34.114Z,95140.53
2022-08-23T10:00:27.328Z,95147.06
2022-08-23T10:02:55.570Z,95139.13
2022-08-23T10:05:41.207Z,95154.63
2022-08-23T10:08:10.674Z,95135.38
2022-08-23T10:10:45.789Z,95125.28
2022-08-23T10:13:16.676Z,95130.09
2022-08-23T10:16:05.582Z,95125.16
2022-08-23T10:18:54.116Z,95127.16
2022-08-23T10:21:50.314Z,95129.19
2022-08-23T10:24:28.857Z,95117.53
2022-08-23T10:26:55.520Z,95122.16
2022-08-23T10:29:35.489Z,95114.41
2022-08-23T10:32:32.657Z,95116.03
2022-08-23T10:35:11.052Z,95118.53
2022-08-23T10:38:11.488Z,95114.97
2022-08-23T10:40:46.845Z,95110.88
2022-08-23T10:43:45.602Z,95106.81
2022-08-23T10:46:14.914Z,95106.31
2022-08-23T10:48:54.405Z,95094.97
2022-08-23T10:51:32.873Z,95100.19
2022-08-23T10:54:30.767Z,95107.38
2022-08-23T10:56:58.115Z,95119.31
2022-08-23T10:59:27.410Z,95101.34
2022-08-23T11:02:29.507Z,95092.03
2022-08-23T11:05:30.665Z,95094.84
2022-08-23T11:08:03.571Z,95090.50
2022-08-23T11:10:39.276Z,95089.59
2022-08-23T11:13:11.696Z,95085.41
2022-08-23T11:15:56.768Z,95079.25
2022-08-23T11:18:28.997Z,95082.25
2022-08-23T11:21:03.038Z,95075.53
2022-08-23T11:23:42.723Z,95083.88
2022-08-23T11:26:38.112Z,95078.28
2022-08-23T11:29:07.566Z,95079.00
2022-08-23T11:31:46.483Z,95079.34
2022-08-23T11:34:29.319Z,95080.84
2022-08-23T11:37:19.778Z,95080.19
2022-08-23T11:39:58.824Z,95078.72
2022-08-23T11:42:37.728Z,95086.09
2022-08-23T11:45:22.822Z,95088.28
2022-08-23T11:48:19.723Z,95087.31
2022-08-23T11:51:22.643Z,95084.91
2022-08-23T11:53:49.233Z,95082.13
2022-08-23T11:56:21.767Z,95086.41
2022-08-23T11:59:15.177Z,95082.91
2022-08-23T12:01:45.678Z,95086.03
2022-08-23T12:04:27.638Z,95078.19
2022-08-23T12:06:56.539Z,95089.06
2022-08-23T12:09:23.217Z,95091.03
2022-08-23T12:11:55.709Z,95087.38
2022-08-23T12:14:33.627Z,95085.13
2022-08-23T12:17:17.124Z,95072.97
2022-08-23T12:19:53.571Z,95076.34
2022-08-23T12:22:31.112Z,95070.88
2022-08-23T12:25:02.201Z,95067.72
2022-08-23T12:27:50.039Z,95058.75
2022-08-23T12:30:32.317Z,95081.47
2022-08-23T12:33:54.212Z,95070.75
2022-08-23T12:36:47.715Z,95060.91
2022-08-23T12:39:36.821Z,95062.91
2022-08-23T12:42:16.242Z,95062.00
2022-08-23T12:44:45.766Z,95063.84
2022-08-23T12:47:18.552Z,95072.94
2022-08-23T12:50:15.146Z,95069.78
2022-08-23T12:52:41.899Z,95068.97
2022-08-23T12:55:17.585Z,95071.34
2022-08-23T12:57:53.152Z,95064.66
2022-08-23T13:00:34.392Z,95070.41
2022-08-23T13:03:06.419Z,95070.69
2022-08-23T13:05:42.912Z,95064.63
2022-08-23T13:08:19.774Z,95068.28
2022-08-23T13:10:55.840Z,95062.00
2022-08-23T13:13:26.920Z,95077.88
2022-08-23T13:16:02.286Z,95076.16
2022-08-23T13:18:43.414Z,95054.84
2022-08-23T13:21:31.934Z,95059.28
2022-08-23T13:24:31.391Z,95060.47
2022-08-23T13:27:21.869Z,95047.03
2022-08-23T13:29:55.407Z,95056.59
2022-08-23T13:32:29.538Z,95045.19
2022-08-23T13:35:34.808Z,95047.25
2022-08-23T13:38:07.516Z,95041.56
2022-08-23T13:41:07.548Z,95049.09
2022-08-23T13:43:48.813Z,95041.81
2022-08-23T13:46:22.550Z,95039.69
2022-08-23T13:49:13.381Z,95041.31
2022-08-23T13:52:18.709Z,95047.19
2022-08-23T13:54:47.221Z,95049.50
2022-08-23T13:57:20.731Z,95046.59
2022-08-23T13:59:56.352Z,95054.50
2022-08-23T14:02:24.806Z,95048.34
2022-08-23T14:04:51.718Z,95047.94
2022-08-23T14:07:18.888Z,95041.34
2022-08-23T14:09:45.628Z,95050.19
2022-08-23T14:12:22.456Z,95046.25
2022-08-23T14:14:50.530Z,95039.97
2022-08-23T14:17:20.605Z,95036.66
2022-08-23T14:20:32.549Z,95046.97
2022-08-23T14:22:36.020Z,95056.22
2022-08-23T14:25:03.580Z,95050.59
2022-08-23T14:27:30.415Z,95046.97
2022-08-23T14:29:57.084Z,95050.50
2022-08-23T14:32:23.912Z,95041.31
2022-08-23T14:34:52.318Z,95040.25
2022-08-23T14:38:02.991Z,95045.81
2022-08-23T14:40:06.134Z,95036.41
2022-08-23T14:42:32.841Z,95046.91
2022-08-23T14:44:59.552Z,95042.81
2022-08-23T14:47:26.570Z,95028.84
2022-08-23T14:49:56.240Z,95044.44
2022-08-23T14:52:25.112Z,95047.50
2022-08-23T14:54:51.835Z,95042.84
2022-08-23T14:57:19.069Z,95046.06
2022-08-23T14:59:45.806Z,95055.22
2022-08-23T15:02:19.061Z,95052.34
2022-08-23T15:04:45.744Z,95058.41
2022-08-23T15:07:18.323Z,95047.56
2022-08-23T15:09:49.785Z,95048.25
2022-08-23T15:15:12.286Z,95048.66
2022-08-23T15:17:47.676Z,95052.88
2022-08-23T15:20:14.931Z,95051.22
2022-08-23T15:22:44.601Z,95052.53
2022-08-23T15:25:12.949Z,95056.03
2022-08-23T15:27:40.251Z,95051.59
2022-08-23T15:30:07.498Z,95054.72
2022-08-23T15:32:34.240Z,95049.16
2022-08-23T15:35:04.618Z,95040.31
2022-08-23T15:37:31.995Z,95056.66
2022-08-23T15:39:58.666Z,95062.56
2022-08-23T15:42:25.495Z,95055.84
2022-08-23T15:44:54.675Z,95049.06
2022-08-23T15:47:29.734Z,95043.31
2022-08-23T15:49:59.303Z,95049.00
2022-08-23T15:52:27.771Z,95046.31
2022-08-23T15:54:54.438Z,95044.59
2022-08-23T15:57:25.681Z,95040.69
2022-08-23T15:59:57.007Z,95031.06
2022-08-23T16:02:24.103Z,95050.81
2022-08-23T16:04:50.802Z,95043.72
2022-08-23T16:07:18.456Z,95042.09
2022-08-23T16:09:45.258Z,95044.72
2022-08-23T16:12:11.890Z,95045.69
2022-08-23T16:14:38.542Z,95052.84
2022-08-23T16:17:07.081Z,95049.44
2022-08-23T16:19:34.324Z,95037.66
2022-08-23T16:22:01.421Z,95043.22
2022-08-23T16:24:28.042Z,95033.63
2022-08-23T16:26:55.970Z,95036.63
2022-08-23T16:29:22.758Z,95030.91
2022-08-23T16:31:49.448Z,95032.91
2022-08-23T16:34:19.172Z,95029.97
2022-08-23T16:36:51.601Z,95031.84
2022-08-23T16:39:18.634Z,95033.97
2022-08-23T16:41:45.244Z,95020.41
2022-08-23T16:44:11.965Z,95031.91
2022-08-23T16:46:41.202Z,95037.59
2022-08-23T16:49:09.202Z,95036.16
2022-08-23T16:51:35.885Z,95031.63
2022-08-23T16:54:03.541Z,95025.63
2022-08-23T16:56:34.418Z,95042.09
2022-08-23T16:59:02.017Z,95037.41
2022-08-23T17:01:29.486Z,95038.19
2022-08-23T17:03:56.297Z,95037.97
2022-08-23T17:06:22.921Z,95048.78
2022-08-23T17:08:49.972Z,95047.41
2022-08-23T17:11:19.696Z,95056.44
2022-08-23T17:13:46.738Z,95047.97
2022-08-23T17:16:13.516Z,95049.44
2022-08-23T17:18:40.391Z,95045.00
2022-08-23T17:21:07.986Z,95046.91
2022-08-23T17:23:40.435Z,95044.34
2022-08-23T17:26:09.332Z,95051.06
2022-08-23T17:28:36.193Z,95043.28
2022-08-23T17:31:02.981Z,95051.50
2022-08-23T17:33:29.838Z,95054.38
2022-08-23T17:35:56.614Z,95044.53
2022-08-23T17:38:23.466Z,95048.16
2022-08-23T17:40:50.153Z,95045.31
2022-08-23T17:43:16.801Z,95051.72
2022-08-23T17:45:46.348Z,95050.41
2022-08-23T17:48:14.826Z,95059.31
2022-08-23T17:50:42.266Z,95063.41
2022-08-23T17:53:10.260Z,95068.19
2022-08-23T17:55:37.973Z,95069.50
2022-08-23T17:58:05.106Z,95069.69
2022-08-23T18:00:35.001Z,95071.38
2022-08-23T18:03:01.983Z,95066.72
2022-08-23T18:05:31.107Z,95069.41
2022-08-23T18:07:57.738Z,95078.13
2022-08-23T18:10:24.512Z,95073.16
2022-08-23T18:12:51.771Z,95086.50
2022-08-23T18:15:18.496Z,95087.94
2022-08-23T18:17:45.212Z,95089.06
2022-08-23T18:20:12.940Z,95087.13
2022-08-23T18:22:40.261Z,95097.97
2022-08-23T18:25:09.276Z,95093.31
2022-08-23T18:27:35.971Z,95096.97
2022-08-23T18:30:03.773Z,95093.97
2022-08-23T18:32:35.470Z,95096.84
2022-08-23T18:35:02.537Z,95107.22
2022-08-23T18:37:29.182Z,95104.47
2022-08-23T18:39:55.851Z,95107.56
2022-08-23T18:42:22.544Z,95100.72
2022-08-23T18:44:49.200Z,95109.69
2022-08-23T18:47:15.899Z,95111.66
2022-08-23T18:49:42.668Z,95122.38
2022-08-23T18:52:09.606Z,95121.38
2022-08-23T18:54:36.684Z,95116.72
2022-08-23T18:57:03.994Z,95118.63
2022-08-23T18:59:31.154Z,95136.00
2022-08-23T19:01:57.929Z,95129.47
2022-08-23T19:04:28.353Z,95144.84
2022-08-23T19:06:55.035Z,95132.88
2022-08-23T19:09:21.711Z,95131.31
2022-08-23T19:11:50.418Z,95146.66
2022-08-23T19:14:17.063Z,95143.69
2022-08-23T19:16:48.166Z,95148.09
2022-08-23T19:19:15.624Z,95146.59
2022-08-23T19:21:42.335Z,95137.00
2022-08-23T19:24:09.080Z,95145.78
2022-08-23T19:26:36.610Z,95161.25
2022-08-23T19:29:08.494Z,95162.56
2022-08-23T19:31:41.043Z,95164.25
2022-08-23T19:34:09.193Z,95171.66
2022-08-23T19:36:46.244Z,95163.56
2022-08-23T19:39:17.325Z,95163.06
2022-08-23T19:41:44.638Z,95165.97
2022-08-23T19:44:11.609Z,95170.16
2022-08-23T19:46:38.665Z,95161.06
2022-08-23T19:49:07.096Z,95172.44
2022-08-23T19:51:34.223Z,95173.66
2022-08-23T19:54:00.941Z,95176.03
2022-08-23T19:56:39.905Z,95168.25
2022-08-23T19:59:11.553Z,95176.19
2022-08-23T20:01:38.877Z,95173.50
2022-08-23T20:04:06.701Z,95169.97
2022-08-23T20:06:34.641Z,95168.59
2022-08-23T20:09:01.598Z,95167.53
2022-08-23T20:11:28.393Z,95167.88
2022-08-23T20:13:55.263Z,95165.19
2022-08-23T20:16:22.243Z,95179.34
2022-08-23T20:18:49.264Z,95173.84
2022-08-23T20:21:17.889Z,95182.13
2022-08-23T20:23:44.824Z,95178.91
2022-08-23T20:26:11.826Z,95183.78
2022-08-23T20:28:38.582Z,95176.91
2022-08-23T20:31:25.986Z,95180.28
2022-08-23T20:33:53.053Z,95172.53
2022-08-23T20:36:19.998Z,95170.31
2022-08-23T20:38:47.259Z,95172.44
2022-08-23T20:41:16.899Z,95166.59
2022-08-23T20:43:47.680Z,95158.75
2022-08-23T20:46:15.570Z,95169.53
2022-08-23T20:48:42.370Z,95155.56
2022-08-23T20:51:09.162Z,95159.13
2022-08-23T20:53:38.714Z,95155.22
2022-08-23T20:56:05.821Z,95164.78
2022-08-23T20:58:32.588Z,95157.31
2022-08-23T21:00:59.287Z,95149.81
2022-08-23T21:03:25.980Z,95151.41
2022-08-23T21:06:02.104Z,95161.06
2022-08-23T21:08:30.952Z,95153.16
2022-08-23T21:10:57.712Z,95152.50
2022-08-23T21:13:24.340Z,95154.97
2022-08-23T21:15:51.074Z,95150.91
2022-08-23T21:18:17.719Z,95158.63
2022-08-23T21:20:44.853Z,95148.75
2022-08-23T21:23:11.635Z,95147.44
2022-08-23T21:25:38.501Z,95148.22
2022-08-23T21:28:05.146Z,95149.53
2022-08-23T21:30:33.901Z,95151.34
2022-08-23T21:33:00.638Z,95146.34
2022-08-23T21:35:27.434Z,95147.88
2022-08-23T21:37:54.127Z,95151.59
2022-08-23T21:40:21.199Z,95152.25
2022-08-23T21:42:48.379Z,95143.59
2022-08-23T21:45:15.012Z,95152.50
2022-08-23T21:47:41.732Z,95147.31
2022-08-23T21:50:08.798Z,95140.81
2022-08-23T21:52:35.723Z,95145.03
2022-08-23T21:55:02.442Z,95143.16
2022-08-23T21:57:29.180Z,95147.72
2022-08-23T21:59:55.860Z,95148.53
2022-08-23T22:02:22.516Z,95148.22
2022-08-23T22:04:49.171Z,95145.19
2022-08-23T22:07:15.842Z,95155.72
2022-08-23T22:09:42.589Z,95145.91
2022-08-23T22:12:09.202Z,95143.66
2022-08-23T22:14:36.569Z,95143.66
2022-08-23T22:17:03.892Z,95141.88
2022-08-23T22:19:30.722Z,95149.75
2022-08-23T22:21:57.553Z,95146.91
2022-08-23T22:24:26.171Z,95148.53
2022-08-23T22:26:55.057Z,95138.69
2022-08-23T22:29:21.900Z,95145.47
2022-08-23T22:31:48.757Z,95147.31
2022-08-23T22:34:15.377Z,95142.13
2022-08-23T22:36:42.045Z,95141.63
2022-08-23T22:39:09.109Z,95143.47
2022-08-23T22:41:36.019Z,95140.25
2022-08-23T22:44:03.590Z,95138.47
2022-08-23T22:46:33.027Z,95144.28
2022-08-23T22:49:01.092Z,95151.28
2022-08-23T22:51:32.892Z,95143.94
2022-08-23T22:54:03.060Z,95149.38
2022-08-23T22:56:36.985Z,95157.66
2022-08-23T22:59:04.420Z,95156.16
2022-08-23T23:01:34.447Z,95151.59
2022-08-23T23:04:03.107Z,95154.16
2022-08-23T23:06:30.466Z,95151.94
2022-08-23T23:08:57.239Z,95152.31
2022-08-23T23:11:25.095Z,95158.25
2022-08-23T23:13:55.065Z,95151.31
2022-08-23T23:16:25.538Z,95154.03
2022-08-23T23:18:53.311Z,95156.72
2022-08-23T23:21:19.938Z,95147.00
2022-08-23T23:23:46.624Z,95147.00
2022-08-23T23:26:13.270Z,95148.72
2022-08-23T23:28:39.905Z,95141.66
2022-08-23T23:31:06.703Z,95133.56
2022-08-23T23:33:33.589Z,95140.34
2022-08-23T23:36:00.195Z,95143.50
2022-08-23T23:38:26.847Z,95143.59
2022-08-23T23:40:53.464Z,95138.34
2022-08-23T23:43:20.208Z,95140.31
2022-08-23T23:45:46.894Z,95142.13
2022-08-23T23:48:13.569Z,95135.88
2022-08-23T23:50:45.013Z,95139.81
2022-08-23T23:53:14.332Z,95145.19
2022-08-23T23:55:41.058Z,95153.00
2022-08-23T23:58:07.815Z,95145.94
